NCAR-RAP Real-Time Weather Data

Output produced by METARs form (25 June 2022  05:02 UTC)
found at http://weather.rap.ucar.edu/surface/
 
KTHV 250453Z AUTO 00000KT 10SM CLR 18/16 A3009 RMK AO2 SLP188 T01830161 402780144
KTHV 250353Z AUTO 00000KT 10SM CLR 21/17 A3008 RMK AO2 SLP185 T02060167
KTHV 250253Z AUTO VRB03KT 10SM CLR 22/17 A3008 RMK AO2 SLP184 T02220172 51006
KTHV 250153Z AUTO 19003KT 10SM CLR 22/18 A3007 RMK AO2 SLP183 T02220178
KTHV 250053Z AUTO 19005KT 10SM CLR 23/18 A3006 RMK AO2 SLP180 T02280178
KTHV 242353Z AUTO 15004KT 10SM CLR 26/17 A3006 RMK AO2 SLP177 T02560172 10278 20244 53006
KTHV 242253Z AUTO 15004KT 10SM CLR 27/18 A3005 RMK AO2 SLP174 T02670178
KTHV 242153Z AUTO 00000KT 10SM CLR 28/17 A3004 RMK AO2 SLP170 T02780172
KTHV 242053Z AUTO 00000KT 10SM CLR 27/17 A3004 RMK AO2 SLP172 T02720172 56007
KTHV 241953Z AUTO VRB03KT 10SM FEW032 27/18 A3004 RMK AO2 SLP173 T02670178
KTHV 241853Z AUTO 00000KT 10SM BKN033 26/17 A3006 RMK AO2 SLP177 T02560172
KTHV 241753Z AUTO 12003KT 10SM FEW025 OVC031 24/17 A3006 RMK AO2 SLP179 T02440172 10244 20178 56007
KTHV 241749Z AUTO VRB03KT 10SM SCT025 OVC031 24/17 A3006 RMK AO2